Morristown Municipal Airport
KMMU : now visible

Airfield :











YOU CAN JOIN US ON...

 
LOGIN :

Register | Disclaimer

   EN    FR    IT 

 









Legend :    VFR   Marginal VFR   IFR   Intensive IFR   Very Intensive IFR
Visi :
Ceiling :
>= 8 km
>= 3000ft
5 to 8 km
1000 to 3000 ft
1500m to 5 km
500 to 1000 ft
800 to 1500m
200 to 500 ft
< 800m
< 200 ft
Symbols :   Thunderstorms  Fog  Heavy snow  Heavy precipitations  Wind > 20 kt







- Airport Elevation : 187 ft
- IATA code : MMU


KMMU - Morristown Municipal

CURRENT METAR :
  • 200955Z AUTO 00000KT 10SM CLR 03/03 A3027 RMK AO2

EXPIRED METARs :
  • 200935Z AUTO 00000KT 10SM CLR 03/03 A3027 RMK AO2
  • 200915Z AUTO 00000KT 3/4SM BR VV005 04/04 A3027 RMK AO2
  • 200855Z AUTO 00000KT 2 1/2SM BR CLR 04/04 A3026 RMK AO2
  • 200835Z AUTO 00000KT 5SM BR CLR 04/04 A3026 RMK AO2
  • 200815Z AUTO 00000KT 7SM CLR 04/04 A3026 RMK AO2
  • 200755Z AUTO 00000KT 10SM SCT002 04/04 A3026 RMK AO2
  • 200735Z AUTO 00000KT 1 1/4SM BR SCT002 04/04 A3026 RMK AO2
  • 200715Z AUTO 00000KT 10SM CLR 04/04 A3026 RMK AO2

TAF N/A
No reported NOTAMs for that airfield.



MET'MAP, your aeronautical weather chart ! - Copyright ORBIFLY December 2007 - Disclaimer

ORBIFLY MET'MAP TEAM :

Programming & Development : Alexandra Zaïnal
Concept & Development : Baudouin d'Aumeries
Co-Development & Prog : Marc-Olivier Méhu
Technical & hardware support : Manuel Goepfert

Contact : metmap@orbifly.com




SOURCES & CREDITS :

   NOAA       Earth
Advisory